sensor_id;sensor_type;location;lat;lon;timestamp;P1;durP1;ratioP1;P2;durP2;ratioP2
74215;SDS011;62577;53.378;-2.914;2022-08-19T00:01:13;10.77;;;1.70;;
74215;SDS011;62577;53.378;-2.914;2022-08-19T00:03:39;7.18;;;1.35;;
74215;SDS011;62577;53.378;-2.914;2022-08-19T00:06:05;10.70;;;1.42;;
74215;SDS011;62577;53.378;-2.914;2022-08-19T00:08:31;9.23;;;1.80;;
74215;SDS011;62577;53.378;-2.914;2022-08-19T00:10:57;8.55;;;1.83;;
74215;SDS011;62577;53.378;-2.914;2022-08-19T00:13:23;8.40;;;1.42;;
74215;SDS011;62577;53.378;-2.914;2022-08-19T00:15:49;6.80;;;1.55;;
74215;SDS011;62577;53.378;-2.914;2022-08-19T00:18:16;7.28;;;1.98;;
74215;SDS011;62577;53.378;-2.914;2022-08-19T00:20:42;9.57;;;1.30;;
74215;SDS011;62577;53.378;-2.914;2022-08-19T00:23:09;11.70;;;1.88;;
74215;SDS011;62577;53.378;-2.914;2022-08-19T00:25:35;10.02;;;1.77;;
74215;SDS011;62577;53.378;-2.914;2022-08-19T00:28:01;7.57;;;1.63;;
74215;SDS011;62577;53.378;-2.914;2022-08-19T00:30:28;12.93;;;2.22;;
74215;SDS011;62577;53.378;-2.914;2022-08-19T00:32:54;10.27;;;1.73;;
74215;SDS011;62577;53.378;-2.914;2022-08-19T00:35:20;10.90;;;1.77;;
74215;SDS011;62577;53.378;-2.914;2022-08-19T00:37:49;10.52;;;2.55;;
74215;SDS011;62577;53.378;-2.914;2022-08-19T00:40:16;11.02;;;1.55;;
74215;SDS011;62577;53.378;-2.914;2022-08-19T00:42:43;10.93;;;1.98;;
74215;SDS011;62577;53.378;-2.914;2022-08-19T00:45:19;8.30;;;1.92;;
74215;SDS011;62577;53.378;-2.914;2022-08-19T00:47:45;11.75;;;2.17;;
74215;SDS011;62577;53.378;-2.914;2022-08-19T00:50:13;10.52;;;1.85;;
74215;SDS011;62577;53.378;-2.914;2022-08-19T00:52:41;8.88;;;1.17;;
74215;SDS011;62577;53.378;-2.914;2022-08-19T00:55:10;10.90;;;1.85;;
74215;SDS011;62577;53.378;-2.914;2022-08-19T00:57:38;11.43;;;1.95;;
74215;SDS011;62577;53.378;-2.914;2022-08-19T01:00:07;12.63;;;2.38;;
74215;SDS011;62577;53.378;-2.914;2022-08-19T01:02:35;12.93;;;1.70;;
74215;SDS011;62577;53.378;-2.914;2022-08-19T01:05:02;13.90;;;2.05;;
74215;SDS011;62577;53.378;-2.914;2022-08-19T01:07:30;7.18;;;1.60;;
74215;SDS011;62577;53.378;-2.914;2022-08-19T01:09:56;12.93;;;1.92;;
74215;SDS011;62577;53.378;-2.914;2022-08-19T01:12:22;10.38;;;1.60;;
74215;SDS011;62577;53.378;-2.914;2022-08-19T01:14:49;12.65;;;2.00;;
74215;SDS011;62577;53.378;-2.914;2022-08-19T01:17:15;5.97;;;1.73;;
74215;SDS011;62577;53.378;-2.914;2022-08-19T01:19:42;9.70;;;2.13;;
74215;SDS011;62577;53.378;-2.914;2022-08-19T01:22:12;13.40;;;1.55;;
74215;SDS011;62577;53.378;-2.914;2022-08-19T01:24:40;12.20;;;1.77;;
74215;SDS011;62577;53.378;-2.914;2022-08-19T01:27:07;11.65;;;1.98;;
74215;SDS011;62577;53.378;-2.914;2022-08-19T01:29:34;8.38;;;1.38;;
74215;SDS011;62577;53.378;-2.914;2022-08-19T01:32:02;15.48;;;1.88;;
74215;SDS011;62577;53.378;-2.914;2022-08-19T01:34:28;11.32;;;2.20;;
74215;SDS011;62577;53.378;-2.914;2022-08-19T01:36:54;9.68;;;1.90;;
74215;SDS011;62577;53.378;-2.914;2022-08-19T01:39:22;9.52;;;1.70;;
74215;SDS011;62577;53.378;-2.914;2022-08-19T01:41:48;13.55;;;2.17;;
74215;SDS011;62577;53.378;-2.914;2022-08-19T01:44:15;11.02;;;1.73;;
74215;SDS011;62577;53.378;-2.914;2022-08-19T01:46:41;9.55;;;1.95;;
74215;SDS011;62577;53.378;-2.914;2022-08-19T01:49:07;15.82;;;1.80;;
74215;SDS011;62577;53.378;-2.914;2022-08-19T01:51:34;9.80;;;1.42;;
74215;SDS011;62577;53.378;-2.914;2022-08-19T01:54:00;7.30;;;1.80;;
74215;SDS011;62577;53.378;-2.914;2022-08-19T01:56:26;13.98;;;1.98;;
74215;SDS011;62577;53.378;-2.914;2022-08-19T01:58:56;11.10;;;2.65;;
74215;SDS011;62577;53.378;-2.914;2022-08-19T02:01:23;11.52;;;1.92;;
74215;SDS011;62577;53.378;-2.914;2022-08-19T02:03:49;7.78;;;1.85;;
74215;SDS011;62577;53.378;-2.914;2022-08-19T02:06:18;7.43;;;2.05;;
74215;SDS011;62577;53.378;-2.914;2022-08-19T02:08:44;7.53;;;1.48;;
74215;SDS011;62577;53.378;-2.914;2022-08-19T02:11:17;7.80;;;1.60;;
74215;SDS011;62577;53.378;-2.914;2022-08-19T02:13:44;9.68;;;1.63;;
74215;SDS011;62577;53.378;-2.914;2022-08-19T02:16:10;11.38;;;1.60;;
74215;SDS011;62577;53.378;-2.914;2022-08-19T02:18:36;18.17;;;2.70;;
74215;SDS011;62577;53.378;-2.914;2022-08-19T02:21:02;8.85;;;1.92;;
74215;SDS011;62577;53.378;-2.914;2022-08-19T02:23:29;8.07;;;1.65;;
74215;SDS011;62577;53.378;-2.914;2022-08-19T02:25:55;8.50;;;2.05;;
74215;SDS011;62577;53.378;-2.914;2022-08-19T02:28:21;11.05;;;2.17;;
74215;SDS011;62577;53.378;-2.914;2022-08-19T02:30:47;8.15;;;2.08;;
74215;SDS011;62577;53.378;-2.914;2022-08-19T02:33:13;10.23;;;2.90;;
74215;SDS011;62577;53.378;-2.914;2022-08-19T02:35:43;10.77;;;2.53;;
74215;SDS011;62577;53.378;-2.914;2022-08-19T02:38:09;16.45;;;2.08;;
74215;SDS011;62577;53.378;-2.914;2022-08-19T02:40:52;9.32;;;2.10;;
74215;SDS011;62577;53.378;-2.914;2022-08-19T02:43:18;12.20;;;2.35;;
74215;SDS011;62577;53.378;-2.914;2022-08-19T02:45:45;12.43;;;1.98;;
74215;SDS011;62577;53.378;-2.914;2022-08-19T02:48:13;9.18;;;1.63;;
74215;SDS011;62577;53.378;-2.914;2022-08-19T02:50:40;14.88;;;3.40;;
74215;SDS011;62577;53.378;-2.914;2022-08-19T02:53:06;10.05;;;2.35;;
74215;SDS011;62577;53.378;-2.914;2022-08-19T02:55:33;14.05;;;2.33;;
74215;SDS011;62577;53.378;-2.914;2022-08-19T02:57:59;15.88;;;2.78;;
74215;SDS011;62577;53.378;-2.914;2022-08-19T03:00:26;8.85;;;1.63;;
74215;SDS011;62577;53.378;-2.914;2022-08-19T03:02:53;11.60;;;1.77;;
74215;SDS011;62577;53.378;-2.914;2022-08-19T03:05:19;11.32;;;1.75;;
74215;SDS011;62577;53.378;-2.914;2022-08-19T03:07:45;8.20;;;1.95;;
74215;SDS011;62577;53.378;-2.914;2022-08-19T03:10:11;11.05;;;1.70;;
74215;SDS011;62577;53.378;-2.914;2022-08-19T03:12:38;7.00;;;1.70;;
74215;SDS011;62577;53.378;-2.914;2022-08-19T03:15:05;9.40;;;1.55;;
74215;SDS011;62577;53.378;-2.914;2022-08-19T03:17:32;14.63;;;1.92;;
74215;SDS011;62577;53.378;-2.914;2022-08-19T03:19:58;16.02;;;2.38;;
74215;SDS011;62577;53.378;-2.914;2022-08-19T03:22:24;9.90;;;1.55;;
74215;SDS011;62577;53.378;-2.914;2022-08-19T03:24:50;11.60;;;1.73;;
74215;SDS011;62577;53.378;-2.914;2022-08-19T03:27:16;11.55;;;2.33;;
74215;SDS011;62577;53.378;-2.914;2022-08-19T03:29:43;8.55;;;2.03;;
74215;SDS011;62577;53.378;-2.914;2022-08-19T03:32:10;11.88;;;2.15;;
74215;SDS011;62577;53.378;-2.914;2022-08-19T03:34:37;8.05;;;1.98;;
74215;SDS011;62577;53.378;-2.914;2022-08-19T03:37:05;9.32;;;2.70;;
74215;SDS011;62577;53.378;-2.914;2022-08-19T03:39:31;12.18;;;1.90;;
74215;SDS011;62577;53.378;-2.914;2022-08-19T03:41:57;13.68;;;2.83;;
74215;SDS011;62577;53.378;-2.914;2022-08-19T03:44:24;11.80;;;1.90;;
74215;SDS011;62577;53.378;-2.914;2022-08-19T03:46:54;9.23;;;1.98;;
74215;SDS011;62577;53.378;-2.914;2022-08-19T03:49:21;12.02;;;1.90;;
74215;SDS011;62577;53.378;-2.914;2022-08-19T03:51:48;13.68;;;2.15;;
74215;SDS011;62577;53.378;-2.914;2022-08-19T03:54:16;7.68;;;1.95;;
74215;SDS011;62577;53.378;-2.914;2022-08-19T03:56:44;12.40;;;3.20;;
74215;SDS011;62577;53.378;-2.914;2022-08-19T03:59:12;11.02;;;2.47;;
74215;SDS011;62577;53.378;-2.914;2022-08-19T04:01:39;10.15;;;2.15;;
74215;SDS011;62577;53.378;-2.914;2022-08-19T04:04:05;9.07;;;2.00;;
74215;SDS011;62577;53.378;-2.914;2022-08-19T04:06:32;12.48;;;2.50;;
74215;SDS011;62577;53.378;-2.914;2022-08-19T04:09:00;10.45;;;1.73;;
74215;SDS011;62577;53.378;-2.914;2022-08-19T04:11:28;8.27;;;1.77;;
74215;SDS011;62577;53.378;-2.914;2022-08-19T04:13:55;9.25;;;1.98;;
74215;SDS011;62577;53.378;-2.914;2022-08-19T04:16:22;10.40;;;1.77;;
74215;SDS011;62577;53.378;-2.914;2022-08-19T04:18:48;11.90;;;1.98;;
74215;SDS011;62577;53.378;-2.914;2022-08-19T04:21:19;11.07;;;2.30;;
74215;SDS011;62577;53.378;-2.914;2022-08-19T04:23:46;14.88;;;1.90;;
74215;SDS011;62577;53.378;-2.914;2022-08-19T04:26:16;14.07;;;2.20;;
74215;SDS011;62577;53.378;-2.914;2022-08-19T04:28:43;9.77;;;1.70;;
74215;SDS011;62577;53.378;-2.914;2022-08-19T04:31:13;12.60;;;2.05;;
74215;SDS011;62577;53.378;-2.914;2022-08-19T04:33:40;8.48;;;2.42;;
74215;SDS011;62577;53.378;-2.914;2022-08-19T04:36:06;8.38;;;1.90;;
74215;SDS011;62577;53.378;-2.914;2022-08-19T04:38:33;12.57;;;1.88;;
74215;SDS011;62577;53.378;-2.914;2022-08-19T04:40:59;8.70;;;1.88;;
74215;SDS011;62577;53.378;-2.914;2022-08-19T04:43:44;9.45;;;1.80;;
74215;SDS011;62577;53.378;-2.914;2022-08-19T04:46:14;14.63;;;2.25;;
74215;SDS011;62577;53.378;-2.914;2022-08-19T04:48:41;9.48;;;2.50;;
74215;SDS011;62577;53.378;-2.914;2022-08-19T04:51:09;11.38;;;2.10;;
74215;SDS011;62577;53.378;-2.914;2022-08-19T04:53:37;11.57;;;1.60;;
74215;SDS011;62577;53.378;-2.914;2022-08-19T04:56:05;11.13;;;2.70;;
74215;SDS011;62577;53.378;-2.914;2022-08-19T04:58:32;7.65;;;1.70;;
74215;SDS011;62577;53.378;-2.914;2022-08-19T05:00:58;10.75;;;2.50;;
74215;SDS011;62577;53.378;-2.914;2022-08-19T05:03:27;12.30;;;1.90;;
74215;SDS011;62577;53.378;-2.914;2022-08-19T05:05:59;9.90;;;2.10;;
74215;SDS011;62577;53.378;-2.914;2022-08-19T05:08:29;6.35;;;2.47;;
74215;SDS011;62577;53.378;-2.914;2022-08-19T05:10:55;13.40;;;2.05;;
74215;SDS011;62577;53.378;-2.914;2022-08-19T05:13:22;10.80;;;2.28;;
74215;SDS011;62577;53.378;-2.914;2022-08-19T05:15:56;15.45;;;2.28;;
74215;SDS011;62577;53.378;-2.914;2022-08-19T05:18:23;12.13;;;2.20;;
74215;SDS011;62577;53.378;-2.914;2022-08-19T05:21:08;10.40;;;2.38;;
74215;SDS011;62577;53.378;-2.914;2022-08-19T05:23:54;9.32;;;1.77;;
74215;SDS011;62577;53.378;-2.914;2022-08-19T05:26:20;9.10;;;1.77;;
74215;SDS011;62577;53.378;-2.914;2022-08-19T05:28:46;10.13;;;1.67;;
74215;SDS011;62577;53.378;-2.914;2022-08-19T05:31:12;9.77;;;1.52;;
74215;SDS011;62577;53.378;-2.914;2022-08-19T05:33:38;10.98;;;2.15;;
74215;SDS011;62577;53.378;-2.914;2022-08-19T05:36:04;10.95;;;1.77;;
74215;SDS011;62577;53.378;-2.914;2022-08-19T05:38:32;6.35;;;1.38;;
74215;SDS011;62577;53.378;-2.914;2022-08-19T05:40:58;14.32;;;1.75;;
74215;SDS011;62577;53.378;-2.914;2022-08-19T05:43:24;9.55;;;1.77;;
74215;SDS011;62577;53.378;-2.914;2022-08-19T05:45:50;7.10;;;1.63;;
74215;SDS011;62577;53.378;-2.914;2022-08-19T05:48:16;10.85;;;1.65;;
74215;SDS011;62577;53.378;-2.914;2022-08-19T05:50:45;6.70;;;1.55;;
74215;SDS011;62577;53.378;-2.914;2022-08-19T05:53:15;6.40;;;1.77;;
74215;SDS011;62577;53.378;-2.914;2022-08-19T05:55:41;8.98;;;1.70;;
74215;SDS011;62577;53.378;-2.914;2022-08-19T05:58:07;6.53;;;1.50;;
74215;SDS011;62577;53.378;-2.914;2022-08-19T06:00:34;6.63;;;1.70;;
74215;SDS011;62577;53.378;-2.914;2022-08-19T06:03:01;8.75;;;1.65;;
74215;SDS011;62577;53.378;-2.914;2022-08-19T06:05:29;9.52;;;1.75;;
74215;SDS011;62577;53.378;-2.914;2022-08-19T06:07:55;7.40;;;1.80;;
74215;SDS011;62577;53.378;-2.914;2022-08-19T06:10:21;7.72;;;1.63;;
74215;SDS011;62577;53.378;-2.914;2022-08-19T06:12:47;8.13;;;1.67;;
74215;SDS011;62577;53.378;-2.914;2022-08-19T06:15:14;8.65;;;1.63;;
74215;SDS011;62577;53.378;-2.914;2022-08-19T06:17:40;8.98;;;1.60;;
74215;SDS011;62577;53.378;-2.914;2022-08-19T06:20:09;7.18;;;2.45;;
74215;SDS011;62577;53.378;-2.914;2022-08-19T06:22:37;9.02;;;2.17;;
74215;SDS011;62577;53.378;-2.914;2022-08-19T06:25:04;8.25;;;2.10;;
74215;SDS011;62577;53.378;-2.914;2022-08-19T06:27:30;8.50;;;2.03;;
74215;SDS011;62577;53.378;-2.914;2022-08-19T06:29:57;6.03;;;1.90;;
74215;SDS011;62577;53.378;-2.914;2022-08-19T06:32:23;8.45;;;2.28;;
74215;SDS011;62577;53.378;-2.914;2022-08-19T06:34:49;9.27;;;2.28;;
74215;SDS011;62577;53.378;-2.914;2022-08-19T06:37:15;8.25;;;1.92;;
74215;SDS011;62577;53.378;-2.914;2022-08-19T06:39:42;6.75;;;2.15;;
74215;SDS011;62577;53.378;-2.914;2022-08-19T06:42:09;6.90;;;2.35;;
74215;SDS011;62577;53.378;-2.914;2022-08-19T06:44:41;6.55;;;1.75;;
74215;SDS011;62577;53.378;-2.914;2022-08-19T06:47:08;9.10;;;2.38;;
74215;SDS011;62577;53.378;-2.914;2022-08-19T06:49:34;7.65;;;1.92;;
74215;SDS011;62577;53.378;-2.914;2022-08-19T06:52:00;6.38;;;2.00;;
74215;SDS011;62577;53.378;-2.914;2022-08-19T06:54:27;5.35;;;1.52;;
74215;SDS011;62577;53.378;-2.914;2022-08-19T06:59:21;7.82;;;2.00;;
74215;SDS011;62577;53.378;-2.914;2022-08-19T07:01:53;8.13;;;2.47;;
74215;SDS011;62577;53.378;-2.914;2022-08-19T07:04:23;6.20;;;1.70;;
74215;SDS011;62577;53.378;-2.914;2022-08-19T07:06:52;7.43;;;2.25;;
74215;SDS011;62577;53.378;-2.914;2022-08-19T07:09:21;10.95;;;2.92;;
74215;SDS011;62577;53.378;-2.914;2022-08-19T07:11:48;7.35;;;2.03;;
74215;SDS011;62577;53.378;-2.914;2022-08-19T07:14:15;8.15;;;2.33;;
74215;SDS011;62577;53.378;-2.914;2022-08-19T07:16:43;4.47;;;1.95;;
74215;SDS011;62577;53.378;-2.914;2022-08-19T07:19:11;6.65;;;2.35;;
74215;SDS011;62577;53.378;-2.914;2022-08-19T07:21:37;9.05;;;2.03;;
74215;SDS011;62577;53.378;-2.914;2022-08-19T07:24:03;7.60;;;2.33;;
74215;SDS011;62577;53.378;-2.914;2022-08-19T07:26:30;10.57;;;3.15;;
74215;SDS011;62577;53.378;-2.914;2022-08-19T07:28:57;6.93;;;2.05;;
74215;SDS011;62577;53.378;-2.914;2022-08-19T07:31:25;8.70;;;2.00;;
74215;SDS011;62577;53.378;-2.914;2022-08-19T07:33:52;8.05;;;2.47;;
74215;SDS011;62577;53.378;-2.914;2022-08-19T07:36:21;6.57;;;1.95;;
74215;SDS011;62577;53.378;-2.914;2022-08-19T07:38:48;11.18;;;2.53;;
74215;SDS011;62577;53.378;-2.914;2022-08-19T07:41:18;7.72;;;2.67;;
74215;SDS011;62577;53.378;-2.914;2022-08-19T07:43:45;7.95;;;2.35;;
74215;SDS011;62577;53.378;-2.914;2022-08-19T07:46:11;8.15;;;2.20;;
74215;SDS011;62577;53.378;-2.914;2022-08-19T07:48:39;10.00;;;2.42;;
74215;SDS011;62577;53.378;-2.914;2022-08-19T07:51:06;8.77;;;2.75;;
74215;SDS011;62577;53.378;-2.914;2022-08-19T07:53:33;8.60;;;2.22;;
74215;SDS011;62577;53.378;-2.914;2022-08-19T07:55:59;10.10;;;2.72;;
74215;SDS011;62577;53.378;-2.914;2022-08-19T07:58:33;9.18;;;2.50;;
74215;SDS011;62577;53.378;-2.914;2022-08-19T08:01:00;10.90;;;3.25;;
74215;SDS011;62577;53.378;-2.914;2022-08-19T08:03:26;7.80;;;2.55;;
74215;SDS011;62577;53.378;-2.914;2022-08-19T08:06:13;7.85;;;2.58;;
74215;SDS011;62577;53.378;-2.914;2022-08-19T08:08:59;8.32;;;2.75;;
74215;SDS011;62577;53.378;-2.914;2022-08-19T08:11:51;10.60;;;2.85;;
74215;SDS011;62577;53.378;-2.914;2022-08-19T08:14:19;10.00;;;3.33;;
74215;SDS011;62577;53.378;-2.914;2022-08-19T08:16:46;9.20;;;2.75;;
74215;SDS011;62577;53.378;-2.914;2022-08-19T08:19:13;10.05;;;3.08;;
74215;SDS011;62577;53.378;-2.914;2022-08-19T08:21:42;9.93;;;3.00;;
74215;SDS011;62577;53.378;-2.914;2022-08-19T08:24:08;11.13;;;2.88;;
74215;SDS011;62577;53.378;-2.914;2022-08-19T08:26:35;8.90;;;3.20;;
74215;SDS011;62577;53.378;-2.914;2022-08-19T08:29:01;6.50;;;2.40;;
74215;SDS011;62577;53.378;-2.914;2022-08-19T08:31:27;10.35;;;2.97;;
74215;SDS011;62577;53.378;-2.914;2022-08-19T08:33:53;7.60;;;3.47;;
74215;SDS011;62577;53.378;-2.914;2022-08-19T08:36:19;12.98;;;3.05;;
74215;SDS011;62577;53.378;-2.914;2022-08-19T08:38:45;10.30;;;3.65;;
74215;SDS011;62577;53.378;-2.914;2022-08-19T08:43:56;10.82;;;2.83;;
74215;SDS011;62577;53.378;-2.914;2022-08-19T08:46:27;12.18;;;2.75;;
74215;SDS011;62577;53.378;-2.914;2022-08-19T08:49:01;8.55;;;2.75;;
74215;SDS011;62577;53.378;-2.914;2022-08-19T08:51:37;7.18;;;2.50;;
74215;SDS011;62577;53.378;-2.914;2022-08-19T08:54:05;13.82;;;3.42;;
74215;SDS011;62577;53.378;-2.914;2022-08-19T08:56:31;9.45;;;2.70;;
74215;SDS011;62577;53.378;-2.914;2022-08-19T08:58:59;6.55;;;2.13;;
74215;SDS011;62577;53.378;-2.914;2022-08-19T09:01:27;7.03;;;2.03;;
74215;SDS011;62577;53.378;-2.914;2022-08-19T09:03:53;5.40;;;1.27;;
74215;SDS011;62577;53.378;-2.914;2022-08-19T09:06:35;5.32;;;1.33;;
74215;SDS011;62577;53.378;-2.914;2022-08-19T09:16:26;6.47;;;1.75;;
74215;SDS011;62577;53.378;-2.914;2022-08-19T09:18:54;5.95;;;1.65;;
74215;SDS011;62577;53.378;-2.914;2022-08-19T09:21:22;7.18;;;1.55;;
74215;SDS011;62577;53.378;-2.914;2022-08-19T09:23:50;6.43;;;1.42;;
74215;SDS011;62577;53.378;-2.914;2022-08-19T09:26:16;6.63;;;2.15;;
74215;SDS011;62577;53.378;-2.914;2022-08-19T09:28:43;6.22;;;1.83;;
74215;SDS011;62577;53.378;-2.914;2022-08-19T09:31:11;6.18;;;1.88;;
74215;SDS011;62577;53.378;-2.914;2022-08-19T09:33:37;9.05;;;1.88;;
74215;SDS011;62577;53.378;-2.914;2022-08-19T09:36:07;8.85;;;1.75;;
74215;SDS011;62577;53.378;-2.914;2022-08-19T09:38:33;7.97;;;1.50;;
74215;SDS011;62577;53.378;-2.914;2022-08-19T09:41:03;7.65;;;2.13;;
74215;SDS011;62577;53.378;-2.914;2022-08-19T09:43:30;5.22;;;1.60;;
74215;SDS011;62577;53.378;-2.914;2022-08-19T09:45:56;5.70;;;1.75;;
74215;SDS011;62577;53.378;-2.914;2022-08-19T09:48:22;5.45;;;1.63;;
74215;SDS011;62577;53.378;-2.914;2022-08-19T09:50:48;6.22;;;1.70;;
74215;SDS011;62577;53.378;-2.914;2022-08-19T09:53:16;5.25;;;1.20;;
74215;SDS011;62577;53.378;-2.914;2022-08-19T09:55:42;6.38;;;1.60;;
74215;SDS011;62577;53.378;-2.914;2022-08-19T09:58:08;5.40;;;1.40;;
74215;SDS011;62577;53.378;-2.914;2022-08-19T10:00:36;5.15;;;1.50;;
74215;SDS011;62577;53.378;-2.914;2022-08-19T10:03:03;5.57;;;1.27;;
74215;SDS011;62577;53.378;-2.914;2022-08-19T10:05:29;5.88;;;1.60;;
74215;SDS011;62577;53.378;-2.914;2022-08-19T10:08:13;4.75;;;1.98;;
74215;SDS011;62577;53.378;-2.914;2022-08-19T10:10:40;4.40;;;1.45;;
74215;SDS011;62577;53.378;-2.914;2022-08-19T10:13:08;5.38;;;1.20;;
74215;SDS011;62577;53.378;-2.914;2022-08-19T10:15:34;5.68;;;1.48;;
74215;SDS011;62577;53.378;-2.914;2022-08-19T10:18:00;5.35;;;1.48;;
74215;SDS011;62577;53.378;-2.914;2022-08-19T10:20:27;7.07;;;1.33;;
74215;SDS011;62577;53.378;-2.914;2022-08-19T10:22:55;3.42;;;1.23;;
74215;SDS011;62577;53.378;-2.914;2022-08-19T10:25:21;5.10;;;1.30;;
74215;SDS011;62577;53.378;-2.914;2022-08-19T10:27:47;5.47;;;1.33;;
74215;SDS011;62577;53.378;-2.914;2022-08-19T10:30:13;6.20;;;1.50;;
74215;SDS011;62577;53.378;-2.914;2022-08-19T10:32:39;5.13;;;1.48;;
74215;SDS011;62577;53.378;-2.914;2022-08-19T10:35:05;5.97;;;1.55;;
74215;SDS011;62577;53.378;-2.914;2022-08-19T10:37:33;7.18;;;1.52;;
74215;SDS011;62577;53.378;-2.914;2022-08-19T10:39:59;6.47;;;1.73;;
74215;SDS011;62577;53.378;-2.914;2022-08-19T10:42:27;5.40;;;1.23;;
74215;SDS011;62577;53.378;-2.914;2022-08-19T10:44:53;6.07;;;1.40;;
74215;SDS011;62577;53.378;-2.914;2022-08-19T10:47:19;4.97;;;1.13;;
74215;SDS011;62577;53.378;-2.914;2022-08-19T10:49:48;5.35;;;1.33;;
74215;SDS011;62577;53.378;-2.914;2022-08-19T10:52:32;4.38;;;1.05;;
74215;SDS011;62577;53.378;-2.914;2022-08-19T10:55:02;5.25;;;1.00;;
74215;SDS011;62577;53.378;-2.914;2022-08-19T10:57:47;5.25;;;1.00;;
74215;SDS011;62577;53.378;-2.914;2022-08-19T11:00:14;2.00;;;0.63;;
74215;SDS011;62577;53.378;-2.914;2022-08-19T11:02:40;4.72;;;0.70;;
74215;SDS011;62577;53.378;-2.914;2022-08-19T11:05:07;4.03;;;1.08;;
74215;SDS011;62577;53.378;-2.914;2022-08-19T11:07:35;4.30;;;0.90;;
74215;SDS011;62577;53.378;-2.914;2022-08-19T11:10:02;3.75;;;0.73;;
74215;SDS011;62577;53.378;-2.914;2022-08-19T11:12:28;4.20;;;0.65;;
74215;SDS011;62577;53.378;-2.914;2022-08-19T11:14:55;5.35;;;1.08;;
74215;SDS011;62577;53.378;-2.914;2022-08-19T11:17:21;5.75;;;1.15;;
74215;SDS011;62577;53.378;-2.914;2022-08-19T11:19:48;3.08;;;1.00;;
74215;SDS011;62577;53.378;-2.914;2022-08-19T11:22:15;3.47;;;0.90;;
74215;SDS011;62577;53.378;-2.914;2022-08-19T11:24:42;3.53;;;0.60;;
74215;SDS011;62577;53.378;-2.914;2022-08-19T11:27:08;4.13;;;1.00;;
74215;SDS011;62577;53.378;-2.914;2022-08-19T11:29:37;2.80;;;0.73;;
74215;SDS011;62577;53.378;-2.914;2022-08-19T11:32:04;4.63;;;1.02;;
74215;SDS011;62577;53.378;-2.914;2022-08-19T11:34:31;3.20;;;0.95;;
74215;SDS011;62577;53.378;-2.914;2022-08-19T11:36:57;3.70;;;0.75;;
74215;SDS011;62577;53.378;-2.914;2022-08-19T11:39:24;3.28;;;0.65;;
74215;SDS011;62577;53.378;-2.914;2022-08-19T11:41:51;5.95;;;1.00;;
74215;SDS011;62577;53.378;-2.914;2022-08-19T11:44:17;2.30;;;0.80;;
74215;SDS011;62577;53.378;-2.914;2022-08-19T11:46:43;3.50;;;0.80;;
74215;SDS011;62577;53.378;-2.914;2022-08-19T11:49:12;3.83;;;0.60;;
74215;SDS011;62577;53.378;-2.914;2022-08-19T11:51:38;3.10;;;0.75;;
74215;SDS011;62577;53.378;-2.914;2022-08-19T11:54:04;2.67;;;0.70;;
74215;SDS011;62577;53.378;-2.914;2022-08-19T11:56:31;4.18;;;0.95;;
74215;SDS011;62577;53.378;-2.914;2022-08-19T11:58:57;4.22;;;1.00;;
74215;SDS011;62577;53.378;-2.914;2022-08-19T12:01:24;3.05;;;0.60;;
74215;SDS011;62577;53.378;-2.914;2022-08-19T12:03:51;3.45;;;0.68;;
74215;SDS011;62577;53.378;-2.914;2022-08-19T12:06:20;2.28;;;0.75;;
74215;SDS011;62577;53.378;-2.914;2022-08-19T12:08:50;3.05;;;0.63;;
74215;SDS011;62577;53.378;-2.914;2022-08-19T12:11:16;2.08;;;0.63;;
74215;SDS011;62577;53.378;-2.914;2022-08-19T12:13:43;2.90;;;0.60;;
74215;SDS011;62577;53.378;-2.914;2022-08-19T12:18:37;1.98;;;0.75;;
74215;SDS011;62577;53.378;-2.914;2022-08-19T12:21:06;1.42;;;0.28;;
74215;SDS011;62577;53.378;-2.914;2022-08-19T12:23:35;4.05;;;0.47;;
74215;SDS011;62577;53.378;-2.914;2022-08-19T12:26:02;3.92;;;0.63;;
74215;SDS011;62577;53.378;-2.914;2022-08-19T12:28:28;2.92;;;0.30;;
74215;SDS011;62577;53.378;-2.914;2022-08-19T12:30:55;3.38;;;0.70;;
74215;SDS011;62577;53.378;-2.914;2022-08-19T12:33:22;2.90;;;0.60;;
74215;SDS011;62577;53.378;-2.914;2022-08-19T12:35:51;3.50;;;0.70;;
74215;SDS011;62577;53.378;-2.914;2022-08-19T12:38:17;4.50;;;0.50;;
74215;SDS011;62577;53.378;-2.914;2022-08-19T12:40:47;3.20;;;0.50;;
74215;SDS011;62577;53.378;-2.914;2022-08-19T12:43:13;2.42;;;0.63;;
74215;SDS011;62577;53.378;-2.914;2022-08-19T12:45:40;5.50;;;0.70;;
74215;SDS011;62577;53.378;-2.914;2022-08-19T12:48:07;4.90;;;0.80;;
74215;SDS011;62577;53.378;-2.914;2022-08-19T12:50:33;5.05;;;1.00;;
74215;SDS011;62577;53.378;-2.914;2022-08-19T12:52:59;5.90;;;1.00;;
74215;SDS011;62577;53.378;-2.914;2022-08-19T12:55:25;3.90;;;0.82;;
74215;SDS011;62577;53.378;-2.914;2022-08-19T12:57:53;4.50;;;0.85;;
74215;SDS011;62577;53.378;-2.914;2022-08-19T13:00:20;5.15;;;0.90;;
74215;SDS011;62577;53.378;-2.914;2022-08-19T13:02:47;4.88;;;1.13;;
74215;SDS011;62577;53.378;-2.914;2022-08-19T13:05:15;3.28;;;0.82;;
74215;SDS011;62577;53.378;-2.914;2022-08-19T13:07:44;4.10;;;0.80;;
74215;SDS011;62577;53.378;-2.914;2022-08-19T13:10:11;5.85;;;1.00;;
74215;SDS011;62577;53.378;-2.914;2022-08-19T13:12:38;5.68;;;0.63;;
74215;SDS011;62577;53.378;-2.914;2022-08-19T13:15:04;4.45;;;0.70;;
74215;SDS011;62577;53.378;-2.914;2022-08-19T13:17:30;4.32;;;0.90;;
74215;SDS011;62577;53.378;-2.914;2022-08-19T13:19:56;4.47;;;1.00;;
74215;SDS011;62577;53.378;-2.914;2022-08-19T13:22:22;3.03;;;0.70;;
74215;SDS011;62577;53.378;-2.914;2022-08-19T13:24:49;3.70;;;0.70;;
74215;SDS011;62577;53.378;-2.914;2022-08-19T13:27:15;7.40;;;0.90;;
74215;SDS011;62577;53.378;-2.914;2022-08-19T13:29:42;2.90;;;0.82;;
74215;SDS011;62577;53.378;-2.914;2022-08-19T13:32:26;2.10;;;0.55;;
74215;SDS011;62577;53.378;-2.914;2022-08-19T13:35:13;3.75;;;0.90;;
74215;SDS011;62577;53.378;-2.914;2022-08-19T13:37:39;4.30;;;0.85;;
74215;SDS011;62577;53.378;-2.914;2022-08-19T13:40:07;4.72;;;1.20;;
74215;SDS011;62577;53.378;-2.914;2022-08-19T13:42:36;2.47;;;0.73;;
74215;SDS011;62577;53.378;-2.914;2022-08-19T13:45:03;3.40;;;0.88;;
74215;SDS011;62577;53.378;-2.914;2022-08-19T13:47:31;2.42;;;0.60;;
74215;SDS011;62577;53.378;-2.914;2022-08-19T13:49:59;4.78;;;0.80;;
74215;SDS011;62577;53.378;-2.914;2022-08-19T13:52:25;5.90;;;0.68;;
74215;SDS011;62577;53.378;-2.914;2022-08-19T13:54:51;3.90;;;0.88;;
74215;SDS011;62577;53.378;-2.914;2022-08-19T13:57:17;5.60;;;1.48;;
74215;SDS011;62577;53.378;-2.914;2022-08-19T13:59:43;3.60;;;1.08;;
74215;SDS011;62577;53.378;-2.914;2022-08-19T14:02:09;3.72;;;1.55;;
74215;SDS011;62577;53.378;-2.914;2022-08-19T14:04:36;3.47;;;1.42;;
74215;SDS011;62577;53.378;-2.914;2022-08-19T14:07:02;3.55;;;0.88;;
74215;SDS011;62577;53.378;-2.914;2022-08-19T14:09:29;3.75;;;1.08;;
74215;SDS011;62577;53.378;-2.914;2022-08-19T14:11:55;4.55;;;1.00;;
74215;SDS011;62577;53.378;-2.914;2022-08-19T14:14:21;2.92;;;0.98;;
74215;SDS011;62577;53.378;-2.914;2022-08-19T14:16:47;5.85;;;2.80;;
74215;SDS011;62577;53.378;-2.914;2022-08-19T14:19:13;3.58;;;1.73;;
74215;SDS011;62577;53.378;-2.914;2022-08-19T14:21:40;3.13;;;1.52;;
74215;SDS011;62577;53.378;-2.914;2022-08-19T14:24:06;7.82;;;2.45;;
74215;SDS011;62577;53.378;-2.914;2022-08-19T14:26:33;4.40;;;1.55;;
74215;SDS011;62577;53.378;-2.914;2022-08-19T14:28:59;3.95;;;1.45;;
74215;SDS011;62577;53.378;-2.914;2022-08-19T14:31:26;3.97;;;1.02;;
74215;SDS011;62577;53.378;-2.914;2022-08-19T14:33:52;3.33;;;0.65;;
74215;SDS011;62577;53.378;-2.914;2022-08-19T14:36:18;3.92;;;0.73;;
74215;SDS011;62577;53.378;-2.914;2022-08-19T14:38:46;5.32;;;1.10;;
74215;SDS011;62577;53.378;-2.914;2022-08-19T14:41:14;5.43;;;1.38;;
74215;SDS011;62577;53.378;-2.914;2022-08-19T14:43:42;3.28;;;0.70;;
74215;SDS011;62577;53.378;-2.914;2022-08-19T14:46:10;3.05;;;0.70;;
74215;SDS011;62577;53.378;-2.914;2022-08-19T14:48:37;3.00;;;0.73;;